createdAt,value
2023-10-09T00:01:18.792Z,91.60
2023-10-09T00:03:46.924Z,91.60
2023-10-09T00:06:14.897Z,91.60
2023-10-09T00:08:45.968Z,91.60
2023-10-09T00:11:15.650Z,91.60
2023-10-09T00:13:53.571Z,91.60
2023-10-09T00:16:33.941Z,91.60
2023-10-09T00:19:15.559Z,91.60
2023-10-09T00:21:42.956Z,91.60
2023-10-09T00:24:17.661Z,91.50
2023-10-09T00:26:47.336Z,91.50
2023-10-09T00:29:16.314Z,91.50
2023-10-09T00:31:51.134Z,91.40
2023-10-09T00:34:22.100Z,91.40
2023-10-09T00:36:53.018Z,91.40
2023-10-09T00:39:39.193Z,91.30
2023-10-09T00:42:08.073Z,91.30
2023-10-09T00:44:42.537Z,91.30
2023-10-09T00:47:27.578Z,91.30
2023-10-09T00:50:11.945Z,91.30
2023-10-09T00:52:51.055Z,91.20
2023-10-09T00:55:40.504Z,91.20
2023-10-09T00:58:13.711Z,91.20
2023-10-09T01:00:44.629Z,91.20
2023-10-09T01:03:19.401Z,91.20
2023-10-09T01:06:09.797Z,91.60
2023-10-09T01:08:42.985Z,91.20
2023-10-09T01:11:24.036Z,91.60
2023-10-09T01:13:51.444Z,91.30
2023-10-09T01:16:20.192Z,91.30
2023-10-09T01:18:51.509Z,91.30
2023-10-09T01:21:19.338Z,91.30
2023-10-09T01:24:05.870Z,91.30
2023-10-09T01:26:40.449Z,91.40
2023-10-09T01:29:18.720Z,91.40
2023-10-09T01:31:55.886Z,91.40
2023-10-09T01:34:45.929Z,91.40
2023-10-09T01:37:23.762Z,91.40
2023-10-09T01:39:52.701Z,91.50
2023-10-09T01:42:36.144Z,91.50
2023-10-09T01:45:12.736Z,91.50
2023-10-09T01:47:39.991Z,91.50
2023-10-09T01:50:14.981Z,91.60
2023-10-09T01:52:43.762Z,91.60
2023-10-09T01:55:14.940Z,91.60
2023-10-09T01:57:45.656Z,91.60
2023-10-09T02:00:17.771Z,91.60
2023-10-09T02:02:46.259Z,91.60
2023-10-09T02:05:15.886Z,91.70
2023-10-09T02:07:52.454Z,91.70
2023-10-09T02:10:30.354Z,91.60
2023-10-09T02:12:59.526Z,91.70
2023-10-09T02:16:01.837Z,91.70
2023-10-09T02:18:28.646Z,91.70
2023-10-09T02:21:15.797Z,91.70
2023-10-09T02:23:45.616Z,91.70
2023-10-09T02:26:32.410Z,91.70
2023-10-09T02:29:21.514Z,91.70
2023-10-09T02:31:52.911Z,91.70
2023-10-09T02:34:26.585Z,91.70
2023-10-09T02:37:05.643Z,91.80
2023-10-09T02:39:44.404Z,91.80
2023-10-09T02:42:13.993Z,91.80
2023-10-09T02:44:47.237Z,91.90
2023-10-09T02:47:21.573Z,91.80
2023-10-09T02:49:49.561Z,91.90
2023-10-09T02:52:20.199Z,91.80
2023-10-09T02:54:53.891Z,91.90
2023-10-09T02:57:24.885Z,91.90
2023-10-09T02:59:52.770Z,91.90
2023-10-09T03:02:20.398Z,91.90
2023-10-09T03:04:47.296Z,91.90
2023-10-09T03:07:15.051Z,91.90
2023-10-09T03:09:42.179Z,91.90
2023-10-09T03:12:12.941Z,92.00
2023-10-09T03:14:42.241Z,92.00
2023-10-09T03:17:15.444Z,92.00
2023-10-09T03:19:44.770Z,92.10
2023-10-09T03:22:12.756Z,92.10
2023-10-09T03:24:48.893Z,92.20
2023-10-09T03:27:18.355Z,92.20
2023-10-09T03:29:50.860Z,92.20
2023-10-09T03:32:18.039Z,92.30
2023-10-09T03:34:44.965Z,92.30
2023-10-09T03:37:23.340Z,92.30
2023-10-09T03:39:52.910Z,92.40
2023-10-09T03:42:23.713Z,92.40
2023-10-09T03:44:54.690Z,92.50
2023-10-09T03:47:25.456Z,92.60
2023-10-09T03:49:54.792Z,92.70
2023-10-09T03:52:26.422Z,92.80
2023-10-09T03:54:53.433Z,92.80
2023-10-09T03:57:21.276Z,92.90
2023-10-09T03:59:48.262Z,92.90
2023-10-09T04:02:17.921Z,93.00
2023-10-09T04:04:51.778Z,93.00
2023-10-09T04:07:18.765Z,93.10
2023-10-09T04:10:11.444Z,93.10
2023-10-09T04:12:40.711Z,93.20
2023-10-09T04:15:16.240Z,93.20
2023-10-09T04:17:44.390Z,93.20
2023-10-09T04:20:20.857Z,93.20
2023-10-09T04:23:06.822Z,93.20
2023-10-09T04:25:43.423Z,93.30
2023-10-09T04:28:12.955Z,93.30
2023-10-09T04:31:00.110Z,93.30
2023-10-09T04:33:36.487Z,93.30
2023-10-09T04:36:22.359Z,93.30
2023-10-09T04:39:05.649Z,93.20
2023-10-09T04:41:53.152Z,93.30
2023-10-09T04:44:21.873Z,93.30
2023-10-09T04:47:14.098Z,93.30
2023-10-09T04:50:02.812Z,93.30
2023-10-09T04:52:29.708Z,93.40
2023-10-09T04:55:17.548Z,93.40
2023-10-09T04:57:45.408Z,93.30
2023-10-09T05:00:29.155Z,93.30
2023-10-09T05:02:57.801Z,93.30
2023-10-09T05:05:45.252Z,93.40
2023-10-09T05:08:29.832Z,93.40
2023-10-09T05:11:06.825Z,93.30
2023-10-09T05:13:41.110Z,93.40
2023-10-09T05:16:27.841Z,93.50
2023-10-09T05:18:58.874Z,93.50
2023-10-09T05:21:43.795Z,93.60
2023-10-09T05:24:14.931Z,93.70
2023-10-09T05:26:47.744Z,93.70
2023-10-09T05:29:20.558Z,93.70
2023-10-09T05:32:06.068Z,93.70
2023-10-09T05:34:37.846Z,93.70
2023-10-09T05:37:26.237Z,93.80
2023-10-09T05:40:02.951Z,93.80
2023-10-09T05:42:44.705Z,93.80
2023-10-09T05:45:33.169Z,93.80
2023-10-09T05:48:25.845Z,93.90
2023-10-09T05:51:10.695Z,93.80
2023-10-09T05:53:46.821Z,93.80
2023-10-09T05:56:32.537Z,93.90
2023-10-09T05:59:18.213Z,93.90
2023-10-09T06:02:00.041Z,93.90
2023-10-09T06:04:45.742Z,93.90
2023-10-09T06:07:15.400Z,93.90
2023-10-09T06:09:51.840Z,93.90
2023-10-09T06:12:31.337Z,93.90
2023-10-09T06:15:27.861Z,93.90
2023-10-09T06:18:01.255Z,93.90
2023-10-09T06:20:46.693Z,93.90
2023-10-09T06:23:39.364Z,93.80
2023-10-09T06:26:24.747Z,93.80
2023-10-09T06:29:12.560Z,93.80
2023-10-09T06:31:58.031Z,93.80
2023-10-09T06:34:33.853Z,93.70
2023-10-09T06:37:07.035Z,93.70
2023-10-09T06:39:54.453Z,93.70
2023-10-09T06:42:39.852Z,93.70
2023-10-09T06:45:13.315Z,93.70
2023-10-09T06:47:42.957Z,93.70
2023-10-09T06:50:23.383Z,93.70
2023-10-09T06:52:59.326Z,93.70
2023-10-09T06:55:38.065Z,93.60
2023-10-09T06:58:11.224Z,94.10
2023-10-09T07:01:02.078Z,93.70
2023-10-09T07:03:36.070Z,93.70
2023-10-09T07:06:26.379Z,93.70
2023-10-09T07:09:06.603Z,93.70
2023-10-09T07:11:43.176Z,93.70
2023-10-09T07:14:33.185Z,93.70
2023-10-09T07:17:23.443Z,93.80
2023-10-09T07:19:52.395Z,93.70
2023-10-09T07:22:22.096Z,93.80
2023-10-09T07:24:51.169Z,93.80
2023-10-09T07:27:41.503Z,93.80
2023-10-09T07:30:27.709Z,93.80
2023-10-09T07:32:55.891Z,93.80
2023-10-09T07:35:45.883Z,93.80
2023-10-09T07:38:21.774Z,93.80
2023-10-09T07:41:08.343Z,93.80
2023-10-09T07:43:45.829Z,93.80
2023-10-09T07:46:53.386Z,93.90
2023-10-09T07:49:26.661Z,93.90
2023-10-09T07:51:59.900Z,93.90
2023-10-09T07:54:53.164Z,93.90
2023-10-09T07:57:26.810Z,94.00
2023-10-09T08:00:02.064Z,94.00
2023-10-09T08:02:35.494Z,94.00
2023-10-09T08:05:07.966Z,94.00
2023-10-09T08:08:05.605Z,94.00
2023-10-09T08:10:25.140Z,94.00
2023-10-09T08:12:51.983Z,94.00
2023-10-09T08:15:19.608Z,94.00
2023-10-09T08:18:26.222Z,93.90
2023-10-09T08:20:58.790Z,93.90
2023-10-09T08:23:34.917Z,93.90
2023-10-09T08:26:14.389Z,93.90
2023-10-09T08:28:46.240Z,93.80
2023-10-09T08:31:20.653Z,93.80
2023-10-09T08:36:37.587Z,93.80
2023-10-09T08:39:26.451Z,93.70
2023-10-09T08:41:54.464Z,93.70
2023-10-09T08:44:26.423Z,93.60
2023-10-09T08:46:55.379Z,93.60
2023-10-09T08:49:25.375Z,93.50
2023-10-09T08:51:53.758Z,93.50
2023-10-09T08:54:20.945Z,93.40
2023-10-09T08:56:51.439Z,93.40
2023-10-09T08:59:21.757Z,93.40
2023-10-09T09:01:50.550Z,93.30
2023-10-09T09:04:39.718Z,93.30
2023-10-09T09:07:23.909Z,93.10
2023-10-09T09:10:18.519Z,93.00
2023-10-09T09:12:46.833Z,92.90
2023-10-09T09:15:20.964Z,92.80
2023-10-09T09:17:50.566Z,92.70
2023-10-09T09:20:33.113Z,93.00
2023-10-09T09:23:01.719Z,92.50
2023-10-09T09:25:59.978Z,92.40
2023-10-09T09:28:28.183Z,92.30
2023-10-09T09:30:57.717Z,92.30
2023-10-09T09:33:44.839Z,92.20
2023-10-09T09:36:12.494Z,92.10
2023-10-09T09:38:52.424Z,92.00
2023-10-09T09:41:26.179Z,92.00
2023-10-09T09:43:58.382Z,91.90
2023-10-09T09:46:35.462Z,91.80
2023-10-09T09:49:08.449Z,91.70
2023-10-09T09:51:35.756Z,91.70
2023-10-09T09:54:03.792Z,91.50
2023-10-09T09:56:32.288Z,91.40
2023-10-09T09:59:05.498Z,91.20
2023-10-09T10:01:36.592Z,91.10
2023-10-09T10:04:15.330Z,91.00
2023-10-09T10:06:46.406Z,91.00
2023-10-09T10:09:40.382Z,90.90
2023-10-09T10:12:11.165Z,90.80
2023-10-09T10:15:00.774Z,90.80
2023-10-09T10:17:30.661Z,90.70
2023-10-09T10:20:23.138Z,90.80
2023-10-09T10:22:50.096Z,90.70
2023-10-09T10:25:36.832Z,90.60
2023-10-09T10:28:44.307Z,90.40
2023-10-09T10:31:14.797Z,90.30
2023-10-09T10:34:11.756Z,90.20
2023-10-09T10:36:43.562Z,90.00
2023-10-09T10:39:19.927Z,90.30
2023-10-09T10:41:58.528Z,89.80
2023-10-09T10:44:40.085Z,89.40
2023-10-09T10:47:25.270Z,89.20
2023-10-09T10:49:59.985Z,88.70
2023-10-09T10:52:37.048Z,88.40
2023-10-09T10:55:30.094Z,88.20
2023-10-09T10:57:58.331Z,88.00
2023-10-09T11:00:43.826Z,87.90
2023-10-09T11:03:19.205Z,87.70
2023-10-09T11:05:52.160Z,87.50
2023-10-09T11:08:24.479Z,87.30
2023-10-09T11:10:52.101Z,87.30
2023-10-09T11:13:32.286Z,87.00
2023-10-09T11:16:15.768Z,86.90
2023-10-09T11:18:49.010Z,86.70
2023-10-09T11:21:16.536Z,87.20
2023-10-09T11:23:53.079Z,86.20
2023-10-09T11:26:29.962Z,86.00
2023-10-09T11:29:15.741Z,85.80
2023-10-09T11:32:03.362Z,85.50
2023-10-09T11:34:31.030Z,85.60
2023-10-09T11:37:02.152Z,85.10
2023-10-09T11:39:36.062Z,85.30
2023-10-09T11:42:07.990Z,85.30
2023-10-09T11:44:45.919Z,85.30
2023-10-09T11:47:19.426Z,85.00
2023-10-09T11:50:19.744Z,85.10
2023-10-09T11:53:15.383Z,84.80
2023-10-09T11:55:42.385Z,84.60
2023-10-09T11:58:10.024Z,85.30
2023-10-09T12:00:46.969Z,85.20
2023-10-09T12:03:15.851Z,85.30
2023-10-09T12:05:45.205Z,85.30
2023-10-09T12:08:16.477Z,85.40
2023-10-09T12:10:43.810Z,85.70
2023-10-09T12:13:10.804Z,85.40
2023-10-09T12:15:40.835Z,85.30
2023-10-09T12:18:16.149Z,85.10
2023-10-09T12:20:46.152Z,84.90
2023-10-09T12:23:16.008Z,84.80
2023-10-09T12:25:45.900Z,84.50
2023-10-09T12:28:16.732Z,84.40
2023-10-09T12:30:43.620Z,84.50
2023-10-09T12:33:10.584Z,84.40
2023-10-09T12:35:41.472Z,84.40
2023-10-09T12:38:11.834Z,84.10
2023-10-09T12:40:40.811Z,84.10
2023-10-09T12:43:16.398Z,84.20
2023-10-09T12:45:43.646Z,84.00
2023-10-09T12:48:11.039Z,84.10
2023-10-09T12:50:45.369Z,84.20
2023-10-09T12:53:18.465Z,84.20
2023-10-09T12:55:45.297Z,84.10
2023-10-09T12:58:22.445Z,84.30
2023-10-09T13:00:52.297Z,84.30
2023-10-09T13:03:20.074Z,84.40
2023-10-09T13:05:57.802Z,84.50
2023-10-09T13:08:33.069Z,84.60
2023-10-09T13:11:11.760Z,84.50
2023-10-09T13:13:44.290Z,84.30
2023-10-09T13:16:15.579Z,84.20
2023-10-09T13:18:51.169Z,84.20
2023-10-09T13:21:27.311Z,84.20
2023-10-09T13:23:58.672Z,84.30
2023-10-09T13:26:34.939Z,84.20
2023-10-09T13:29:03.985Z,84.20
2023-10-09T13:31:35.298Z,84.30
2023-10-09T13:34:07.597Z,84.20
2023-10-09T13:36:35.438Z,84.20
2023-10-09T13:39:25.769Z,84.10
2023-10-09T13:42:01.604Z,84.20
2023-10-09T13:44:29.300Z,84.00
2023-10-09T13:47:02.490Z,84.00
2023-10-09T13:49:32.312Z,84.00
2023-10-09T13:52:04.021Z,83.90
2023-10-09T13:54:35.201Z,83.90
2023-10-09T13:57:05.772Z,84.70
2023-10-09T13:59:37.154Z,83.90
2023-10-09T14:02:11.256Z,83.90
2023-10-09T14:04:38.739Z,84.00
2023-10-09T14:07:09.499Z,83.90
2023-10-09T14:09:39.562Z,83.90
2023-10-09T14:12:11.592Z,83.80
2023-10-09T14:14:49.581Z,83.60
2023-10-09T14:17:25.118Z,83.70
2023-10-09T14:19:53.947Z,83.90
2023-10-09T14:22:25.456Z,83.90
2023-10-09T14:24:56.662Z,83.80
2023-10-09T14:27:30.615Z,84.70
2023-10-09T14:30:00.754Z,84.70
2023-10-09T14:32:35.250Z,84.00
2023-10-09T14:35:02.779Z,83.90
2023-10-09T14:37:30.093Z,84.00
2023-10-09T14:39:59.274Z,83.90
2023-10-09T14:42:28.891Z,83.80
2023-10-09T14:44:56.950Z,83.90
2023-10-09T14:47:24.217Z,83.90
2023-10-09T14:49:51.525Z,83.60
2023-10-09T14:52:19.832Z,83.70
2023-10-09T14:54:47.191Z,83.60
2023-10-09T14:57:14.964Z,83.60
2023-10-09T14:59:44.105Z,83.60
2023-10-09T15:02:13.458Z,83.70
2023-10-09T15:04:41.014Z,83.80
2023-10-09T15:07:08.175Z,83.90
2023-10-09T15:09:37.605Z,84.00
2023-10-09T15:12:08.402Z,84.00
2023-10-09T15:14:35.410Z,84.00
2023-10-09T15:17:03.532Z,84.00
2023-10-09T15:19:31.085Z,84.10
2023-10-09T15:22:00.003Z,84.10
2023-10-09T15:24:31.464Z,84.20
2023-10-09T15:26:58.656Z,84.20
2023-10-09T15:29:29.474Z,84.30
2023-10-09T15:31:57.149Z,84.20
2023-10-09T15:34:25.834Z,84.40
2023-10-09T15:36:54.786Z,84.40
2023-10-09T15:39:22.561Z,84.50
2023-10-09T15:41:50.050Z,84.50
2023-10-09T15:44:17.834Z,84.50
2023-10-09T15:46:48.024Z,84.60
2023-10-09T15:49:17.923Z,84.60
2023-10-09T15:51:44.922Z,84.60
2023-10-09T15:54:13.721Z,85.50
2023-10-09T15:56:47.317Z,84.60
2023-10-09T15:59:18.195Z,84.70
2023-10-09T16:01:45.285Z,84.60
2023-10-09T16:04:12.515Z,84.70
2023-10-09T16:06:40.995Z,84.70
2023-10-09T16:09:12.411Z,84.80
2023-10-09T16:11:40.904Z,84.80
2023-10-09T16:14:10.747Z,84.90
2023-10-09T16:16:42.785Z,85.00
2023-10-09T16:19:13.489Z,85.10
2023-10-09T16:21:40.654Z,85.10
2023-10-09T16:24:11.160Z,85.20
2023-10-09T16:26:42.909Z,85.20
2023-10-09T16:29:10.876Z,86.10
2023-10-09T16:31:41.165Z,85.30
2023-10-09T16:34:09.063Z,85.30
2023-10-09T16:36:38.893Z,85.40
2023-10-09T16:39:05.894Z,85.40
2023-10-09T16:41:41.131Z,85.50
2023-10-09T16:44:11.663Z,85.50
2023-10-09T16:46:41.039Z,85.50
2023-10-09T16:49:09.667Z,85.50
2023-10-09T16:51:36.631Z,85.70
2023-10-09T16:54:04.337Z,85.70
2023-10-09T16:56:34.618Z,85.80
2023-10-09T16:59:02.068Z,85.70
2023-10-09T17:01:29.433Z,85.80
2023-10-09T17:03:58.888Z,85.80
2023-10-09T17:06:30.195Z,85.90
2023-10-09T17:08:58.235Z,85.80
2023-10-09T17:11:25.775Z,85.80
2023-10-09T17:13:55.864Z,85.90
2023-10-09T17:16:25.297Z,85.90
2023-10-09T17:18:57.515Z,86.00
2023-10-09T17:21:24.856Z,86.00
2023-10-09T17:23:56.605Z,86.90
2023-10-09T17:26:26.190Z,86.10
2023-10-09T17:28:53.430Z,86.10
2023-10-09T17:31:21.695Z,86.20
2023-10-09T17:33:54.921Z,86.20
2023-10-09T17:36:22.230Z,86.30
2023-10-09T17:38:51.299Z,86.40
2023-10-09T17:41:19.105Z,86.40
2023-10-09T17:43:46.101Z,86.50
2023-10-09T17:46:13.168Z,86.60
2023-10-09T17:48:40.396Z,86.60
2023-10-09T17:51:09.945Z,86.60
2023-10-09T17:53:39.691Z,86.70
2023-10-09T17:56:07.764Z,86.80
2023-10-09T17:58:35.258Z,86.90
2023-10-09T18:01:09.499Z,86.90
2023-10-09T18:03:39.476Z,86.90
2023-10-09T18:06:06.603Z,87.10
2023-10-09T18:08:33.656Z,87.20
2023-10-09T18:11:01.742Z,87.20
2023-10-09T18:13:28.823Z,87.30
2023-10-09T18:16:09.704Z,87.40
2023-10-09T18:18:37.928Z,87.40
2023-10-09T18:21:07.222Z,87.50
2023-10-09T18:23:35.080Z,87.50
2023-10-09T18:26:02.455Z,87.60
2023-10-09T18:28:29.739Z,87.70
2023-10-09T18:30:56.571Z,87.60
2023-10-09T18:33:24.453Z,87.70
2023-10-09T18:35:51.243Z,87.70
2023-10-09T18:38:18.115Z,87.70
2023-10-09T18:40:48.442Z,87.80
2023-10-09T18:43:15.900Z,87.90
2023-10-09T18:45:43.740Z,87.90
2023-10-09T18:48:19.157Z,87.90
2023-10-09T18:50:46.296Z,88.00
2023-10-09T18:53:14.335Z,87.90
2023-10-09T18:55:41.832Z,88.00
2023-10-09T18:58:12.700Z,88.10
2023-10-09T19:00:50.153Z,88.10
2023-10-09T19:03:19.024Z,88.10
2023-10-09T19:05:46.546Z,88.00
2023-10-09T19:08:13.598Z,88.20
2023-10-09T19:10:42.540Z,88.20
2023-10-09T19:13:11.317Z,88.20
2023-10-09T19:15:42.303Z,88.20
2023-10-09T19:18:15.082Z,88.30
2023-10-09T19:20:43.829Z,88.30
2023-10-09T19:23:12.610Z,88.40
2023-10-09T19:25:44.030Z,88.30
2023-10-09T19:28:13.250Z,88.30
2023-10-09T19:30:40.138Z,88.30
2023-10-09T19:33:07.116Z,88.40
2023-10-09T19:35:34.472Z,88.40
2023-10-09T19:38:01.733Z,88.40
2023-10-09T19:40:29.275Z,89.20
2023-10-09T19:42:56.709Z,88.30
2023-10-09T19:45:23.528Z,88.30
2023-10-09T19:47:50.876Z,88.60
2023-10-09T19:50:18.377Z,88.40
2023-10-09T19:52:46.483Z,88.50
2023-10-09T19:55:13.722Z,88.40
2023-10-09T19:57:41.003Z,88.40
2023-10-09T20:00:12.131Z,89.30
2023-10-09T20:02:39.927Z,88.40
2023-10-09T20:05:07.450Z,88.40
2023-10-09T20:07:34.424Z,88.40
2023-10-09T20:10:02.629Z,88.50
2023-10-09T20:12:31.008Z,88.40
2023-10-09T20:14:58.179Z,88.50
2023-10-09T20:17:25.606Z,88.60
2023-10-09T20:19:54.228Z,88.60
2023-10-09T20:22:21.771Z,88.60
2023-10-09T20:24:48.615Z,88.70
2023-10-09T20:27:18.606Z,88.70
2023-10-09T20:29:47.746Z,88.80
2023-10-09T20:32:15.336Z,88.90
2023-10-09T20:34:44.809Z,88.90
2023-10-09T20:37:13.491Z,89.00
2023-10-09T20:39:41.950Z,89.10
2023-10-09T20:42:08.808Z,89.30
2023-10-09T20:44:36.640Z,89.30
2023-10-09T20:47:04.308Z,89.40
2023-10-09T20:49:33.099Z,89.40
2023-10-09T20:51:59.929Z,89.50
2023-10-09T20:54:26.993Z,89.60
2023-10-09T20:56:53.842Z,89.60
2023-10-09T20:59:21.159Z,89.70
2023-10-09T21:01:48.048Z,89.70
2023-10-09T21:04:15.177Z,90.20
2023-10-09T21:06:42.018Z,89.80
2023-10-09T21:09:09.127Z,89.70
2023-10-09T21:11:35.923Z,89.80
2023-10-09T21:14:02.802Z,89.80
2023-10-09T21:16:29.655Z,89.80
2023-10-09T21:18:57.112Z,89.90
2023-10-09T21:21:24.860Z,89.80
2023-10-09T21:23:51.738Z,89.90
2023-10-09T21:26:20.484Z,89.80
2023-10-09T21:28:49.111Z,89.90
2023-10-09T21:31:17.380Z,89.90
2023-10-09T21:33:50.909Z,90.00
2023-10-09T21:36:18.426Z,90.00
2023-10-09T21:38:45.588Z,90.00
2023-10-09T21:41:13.736Z,90.00
2023-10-09T21:43:41.736Z,90.00
2023-10-09T21:46:11.835Z,90.00
2023-10-09T21:48:39.600Z,90.00
2023-10-09T21:51:10.284Z,90.00
2023-10-09T21:53:37.866Z,90.00
2023-10-09T21:56:09.309Z,90.10
2023-10-09T21:58:36.467Z,90.10
2023-10-09T22:01:04.348Z,90.10
2023-10-09T22:03:32.436Z,90.10
2023-10-09T22:06:00.253Z,90.20
2023-10-09T22:08:27.302Z,90.10
2023-10-09T22:10:54.788Z,90.10
2023-10-09T22:13:23.024Z,90.20
2023-10-09T22:15:50.049Z,90.20
2023-10-09T22:18:25.374Z,90.20
2023-10-09T22:20:58.105Z,90.30
2023-10-09T22:23:34.763Z,90.20
2023-10-09T22:26:02.099Z,90.20
2023-10-09T22:28:30.341Z,90.30
2023-10-09T22:31:02.482Z,90.30
2023-10-09T22:33:46.238Z,90.30
2023-10-09T22:39:09.038Z,90.30
2023-10-09T22:41:36.076Z,90.40
2023-10-09T22:44:11.473Z,90.40
2023-10-09T22:46:41.898Z,90.40
2023-10-09T22:49:15.806Z,90.40
2023-10-09T22:51:52.036Z,90.40
2023-10-09T22:54:35.268Z,90.40
2023-10-09T22:57:03.780Z,90.40
2023-10-09T22:59:30.873Z,90.40
2023-10-09T23:02:00.807Z,90.40
2023-10-09T23:04:40.367Z,90.40
2023-10-09T23:07:15.804Z,90.50
2023-10-09T23:09:55.138Z,90.90
2023-10-09T23:12:26.900Z,90.60
2023-10-09T23:14:56.589Z,90.60
2023-10-09T23:17:43.714Z,90.60
2023-10-09T23:20:17.493Z,90.50
2023-10-09T23:22:51.083Z,90.60
2023-10-09T23:25:34.344Z,90.60
2023-10-09T23:28:22.858Z,90.60
2023-10-09T23:30:53.570Z,90.60
2023-10-09T23:33:23.356Z,90.60
2023-10-09T23:35:57.368Z,90.60
2023-10-09T23:38:44.590Z,90.60
2023-10-09T23:41:11.824Z,90.60
2023-10-09T23:43:48.141Z,90.60
2023-10-09T23:46:19.334Z,90.60
2023-10-09T23:48:46.364Z,90.60
2023-10-09T23:51:20.013Z,90.60
2023-10-09T23:53:52.993Z,90.60
2023-10-09T23:56:40.349Z,90.60
2023-10-09T23:59:12.690Z,90.60
